createdAt,value
2018-12-09T00:00:23.623Z,6.17
2018-12-09T00:01:31.693Z,6.25
2018-12-09T00:02:39.749Z,6.18
2018-12-09T00:03:47.804Z,6.22
2018-12-09T00:04:55.864Z,6.19
2018-12-09T00:06:03.958Z,6.27
2018-12-09T00:07:11.990Z,6.21
2018-12-09T00:08:20.034Z,6.25
2018-12-09T00:09:28.089Z,6.18
2018-12-09T00:10:36.147Z,6.22
2018-12-09T00:11:44.223Z,6.22
2018-12-09T00:12:52.277Z,6.22
2018-12-09T00:14:00.334Z,6.28
2018-12-09T00:15:08.393Z,6.33
2018-12-09T00:16:16.446Z,6.36
2018-12-09T00:17:24.505Z,6.34
2018-12-09T00:18:32.556Z,6.30
2018-12-09T00:19:40.627Z,6.36
2018-12-09T00:20:48.690Z,6.31
2018-12-09T00:21:56.746Z,6.33
2018-12-09T00:23:04.807Z,6.30
2018-12-09T00:24:12.852Z,6.34
2018-12-09T00:25:20.923Z,6.38
2018-12-09T00:26:28.985Z,6.33
2018-12-09T00:27:37.032Z,6.40
2018-12-09T00:28:45.088Z,6.36
2018-12-09T00:29:53.167Z,6.33
2018-12-09T00:31:01.228Z,6.34
2018-12-09T00:32:09.277Z,6.43
2018-12-09T00:33:17.342Z,6.46
2018-12-09T00:34:25.384Z,6.41
2018-12-09T00:35:33.447Z,6.55
2018-12-09T00:36:41.519Z,6.48
2018-12-09T00:37:49.583Z,6.52
2018-12-09T00:38:57.630Z,6.43
2018-12-09T00:40:05.690Z,6.41
2018-12-09T00:41:13.763Z,6.44
2018-12-09T00:42:21.809Z,6.43
2018-12-09T00:43:29.885Z,6.40
2018-12-09T00:44:38.146Z,6.46
2018-12-09T00:45:45.988Z,6.54
2018-12-09T00:46:54.045Z,6.36
2018-12-09T00:48:02.096Z,6.40
2018-12-09T00:49:10.171Z,6.34
2018-12-09T00:50:18.213Z,6.36
2018-12-09T00:51:26.278Z,6.31
2018-12-09T00:52:34.355Z,6.36
2018-12-09T00:53:42.404Z,6.40
2018-12-09T00:54:50.510Z,6.38
2018-12-09T00:55:58.524Z,6.43
2018-12-09T00:57:06.577Z,6.41
2018-12-09T00:58:14.647Z,6.46
2018-12-09T00:59:22.692Z,6.46
2018-12-09T01:00:30.745Z,6.48
2018-12-09T01:01:38.845Z,6.41
2018-12-09T01:02:46.876Z,6.49
2018-12-09T01:03:54.921Z,6.49
2018-12-09T01:05:02.995Z,6.46
2018-12-09T01:06:11.048Z,6.44
2018-12-09T01:07:19.113Z,6.38
2018-12-09T01:08:27.174Z,6.38
2018-12-09T01:09:35.233Z,6.41
2018-12-09T01:10:43.291Z,6.44
2018-12-09T01:11:51.337Z,6.41
2018-12-09T01:12:59.412Z,6.51
2018-12-09T01:14:07.465Z,6.44
2018-12-09T01:15:15.545Z,6.46
2018-12-09T01:16:23.569Z,6.46
2018-12-09T01:17:31.640Z,6.44
2018-12-09T01:18:39.702Z,6.41
2018-12-09T01:19:47.769Z,6.49
2018-12-09T01:20:55.793Z,6.49
2018-12-09T01:22:03.874Z,6.44
2018-12-09T01:23:11.938Z,6.48
2018-12-09T01:24:20.001Z,6.40
2018-12-09T01:25:28.070Z,6.51
2018-12-09T01:26:36.124Z,6.48
2018-12-09T01:27:44.181Z,6.46
2018-12-09T01:28:52.219Z,6.51
2018-12-09T01:30:00.294Z,6.55
2018-12-09T01:31:08.334Z,6.61
2018-12-09T01:32:16.417Z,6.55
2018-12-09T01:33:24.454Z,6.52
2018-12-09T01:34:32.542Z,6.56
2018-12-09T01:35:40.549Z,6.52
2018-12-09T01:36:48.643Z,6.64
2018-12-09T01:37:56.701Z,6.55
2018-12-09T01:39:04.769Z,6.49
2018-12-09T01:40:12.822Z,6.59
2018-12-09T01:41:20.893Z,6.56
2018-12-09T01:42:28.920Z,6.52
2018-12-09T01:43:37.004Z,6.61
2018-12-09T01:44:45.036Z,6.51
2018-12-09T01:45:53.103Z,6.55
2018-12-09T01:47:01.184Z,6.62
2018-12-09T01:48:09.231Z,6.64
2018-12-09T01:49:17.286Z,6.64
2018-12-09T01:50:25.361Z,6.64
2018-12-09T01:51:33.395Z,6.64
2018-12-09T01:52:41.466Z,6.62
2018-12-09T01:53:49.523Z,6.59
2018-12-09T01:54:57.588Z,6.61
2018-12-09T01:56:05.655Z,6.59
2018-12-09T01:57:13.707Z,6.62
2018-12-09T01:58:21.765Z,6.71
2018-12-09T01:59:29.827Z,6.69
2018-12-09T02:00:37.891Z,6.70
2018-12-09T02:01:45.930Z,6.69
2018-12-09T02:02:53.996Z,6.79
2018-12-09T02:04:02.086Z,6.77
2018-12-09T02:05:10.109Z,6.84
2018-12-09T02:06:18.170Z,6.85
2018-12-09T02:07:26.243Z,6.95
2018-12-09T02:08:34.307Z,6.80
2018-12-09T02:09:42.369Z,6.94
2018-12-09T02:10:50.420Z,6.99
2018-12-09T02:11:58.484Z,6.97
2018-12-09T02:13:06.547Z,6.98
2018-12-09T02:14:14.575Z,6.91
2018-12-09T02:15:22.639Z,7.05
2018-12-09T02:16:30.703Z,7.06
2018-12-09T02:17:38.774Z,6.98
2018-12-09T02:18:46.826Z,6.99
2018-12-09T02:19:54.873Z,7.12
2018-12-09T02:21:02.923Z,7.06
2018-12-09T02:22:11.014Z,7.10
2018-12-09T02:23:19.070Z,7.17
2018-12-09T02:24:27.112Z,7.10
2018-12-09T02:25:35.171Z,7.10
2018-12-09T02:26:43.233Z,7.07
2018-12-09T02:27:51.315Z,7.13
2018-12-09T02:28:59.406Z,7.07
2018-12-09T02:30:07.423Z,7.15
2018-12-09T02:31:15.496Z,7.12
2018-12-09T02:32:23.554Z,7.10
2018-12-09T02:33:31.590Z,7.13
2018-12-09T02:34:39.663Z,7.13
2018-12-09T02:35:47.734Z,7.16
2018-12-09T02:36:55.762Z,7.16
2018-12-09T02:38:03.829Z,7.10
2018-12-09T02:39:11.909Z,7.15
2018-12-09T02:40:19.961Z,7.15
2018-12-09T02:41:28.022Z,7.09
2018-12-09T02:42:36.053Z,7.16
2018-12-09T02:43:44.144Z,7.09
2018-12-09T02:44:52.204Z,7.21
2018-12-09T02:46:00.263Z,7.15
2018-12-09T02:47:08.302Z,7.28
2018-12-09T02:48:16.371Z,7.27
2018-12-09T02:49:24.436Z,7.27
2018-12-09T02:50:32.489Z,7.24
2018-12-09T02:51:40.565Z,7.24
2018-12-09T02:52:48.626Z,7.23
2018-12-09T02:53:56.679Z,7.20
2018-12-09T02:55:04.725Z,7.27
2018-12-09T02:56:12.795Z,7.24
2018-12-09T02:57:20.850Z,7.25
2018-12-09T02:58:28.911Z,7.23
2018-12-09T02:59:36.971Z,7.27
2018-12-09T03:00:45.032Z,7.30
2018-12-09T03:01:53.088Z,7.24
2018-12-09T03:03:01.134Z,7.31
2018-12-09T03:04:09.206Z,7.43
2018-12-09T03:05:17.282Z,7.42
2018-12-09T03:06:25.302Z,7.32
2018-12-09T03:07:33.380Z,7.39
2018-12-09T03:08:41.436Z,7.35
2018-12-09T03:09:49.509Z,7.34
2018-12-09T03:10:57.585Z,7.46
2018-12-09T03:12:05.622Z,7.39
2018-12-09T03:13:13.687Z,7.45
2018-12-09T03:14:21.770Z,7.37
2018-12-09T03:15:29.818Z,7.37
2018-12-09T03:16:37.844Z,7.42
2018-12-09T03:17:45.909Z,7.39
2018-12-09T03:18:54.055Z,7.37
2018-12-09T03:20:02.050Z,7.42
2018-12-09T03:21:10.099Z,7.32
2018-12-09T03:22:18.256Z,7.32
2018-12-09T03:23:26.215Z,7.30
2018-12-09T03:24:34.273Z,7.28
2018-12-09T03:25:42.342Z,7.28
2018-12-09T03:26:50.395Z,7.28
2018-12-09T03:27:58.460Z,7.30
2018-12-09T03:29:06.544Z,7.28
2018-12-09T03:30:14.585Z,7.28
2018-12-09T03:31:22.692Z,7.25
2018-12-09T03:32:30.746Z,7.30
2018-12-09T03:33:38.774Z,7.25
2018-12-09T03:34:46.842Z,7.28
2018-12-09T03:35:54.898Z,7.24
2018-12-09T03:37:02.938Z,7.24
2018-12-09T03:38:11.014Z,7.27
2018-12-09T03:39:19.059Z,7.30
2018-12-09T03:40:27.100Z,7.25
2018-12-09T03:41:35.163Z,7.27
2018-12-09T03:42:43.272Z,7.20
2018-12-09T03:43:51.311Z,7.31
2018-12-09T03:44:59.353Z,7.27
2018-12-09T03:46:07.425Z,7.28
2018-12-09T03:47:15.467Z,7.31
2018-12-09T03:48:24.781Z,7.24
2018-12-09T03:49:31.607Z,7.24
2018-12-09T03:50:39.673Z,7.24
2018-12-09T03:51:47.859Z,7.23
2018-12-09T03:52:55.768Z,7.20
2018-12-09T03:54:03.838Z,7.15
2018-12-09T03:55:11.915Z,7.13
2018-12-09T03:56:19.955Z,7.12
2018-12-09T03:57:28.400Z,7.15
2018-12-09T03:58:36.053Z,7.13
2018-12-09T03:59:44.143Z,7.10
2018-12-09T04:00:52.206Z,7.13
2018-12-09T04:02:00.256Z,7.06
2018-12-09T04:03:08.303Z,7.06
2018-12-09T04:04:16.365Z,7.09
2018-12-09T04:05:24.441Z,7.05
2018-12-09T04:06:32.503Z,7.10
2018-12-09T04:07:40.534Z,7.16
2018-12-09T04:08:48.613Z,7.10
2018-12-09T04:09:56.675Z,7.16
2018-12-09T04:11:04.730Z,7.16
2018-12-09T04:12:12.806Z,7.09
2018-12-09T04:13:20.875Z,7.13
2018-12-09T04:14:28.929Z,7.16
2018-12-09T04:15:36.971Z,7.13
2018-12-09T04:16:45.094Z,7.07
2018-12-09T04:17:53.081Z,6.99
2018-12-09T04:19:01.163Z,7.02
2018-12-09T04:20:09.215Z,7.06
2018-12-09T04:21:17.280Z,7.05
2018-12-09T04:22:25.334Z,7.06
2018-12-09T04:23:33.373Z,7.07
2018-12-09T04:24:41.461Z,7.02
2018-12-09T04:25:49.496Z,7.05
2018-12-09T04:26:57.548Z,7.09
2018-12-09T04:28:05.596Z,7.06
2018-12-09T04:29:13.708Z,7.02
2018-12-09T04:30:21.738Z,7.07
2018-12-09T04:31:29.793Z,6.95
2018-12-09T04:32:37.926Z,6.88
2018-12-09T04:33:45.929Z,7.05
2018-12-09T04:34:54.002Z,7.10
2018-12-09T04:36:02.047Z,6.99
2018-12-09T04:37:10.100Z,7.12
2018-12-09T04:38:18.163Z,7.05
2018-12-09T04:39:26.219Z,7.07
2018-12-09T04:40:34.286Z,7.10
2018-12-09T04:41:42.349Z,7.12
2018-12-09T04:42:50.395Z,7.15
2018-12-09T04:43:58.459Z,7.15
2018-12-09T04:45:06.500Z,7.15
2018-12-09T04:46:14.587Z,7.12
2018-12-09T04:47:22.637Z,7.17
2018-12-09T04:48:30.696Z,7.16
2018-12-09T04:49:38.756Z,7.09
2018-12-09T04:50:46.840Z,7.12
2018-12-09T04:51:54.926Z,7.15
2018-12-09T04:53:02.922Z,7.17
2018-12-09T04:54:11.011Z,7.13
2018-12-09T04:55:19.050Z,7.13
2018-12-09T04:56:27.117Z,7.13
2018-12-09T04:57:35.164Z,7.20
2018-12-09T04:58:43.231Z,7.13
2018-12-09T04:59:51.298Z,7.16
2018-12-09T05:00:59.356Z,7.16
2018-12-09T05:02:07.406Z,7.15
2018-12-09T05:03:15.496Z,7.16
2018-12-09T05:04:23.528Z,7.13
2018-12-09T05:05:31.576Z,7.09
2018-12-09T05:06:39.653Z,7.07
2018-12-09T05:07:47.734Z,7.05
2018-12-09T05:08:55.774Z,6.80
2018-12-09T05:10:03.821Z,6.30
2018-12-09T05:11:11.898Z,5.75
2018-12-09T05:12:19.929Z,5.45
2018-12-09T05:13:28.004Z,5.18
2018-12-09T05:14:36.054Z,4.89
2018-12-09T05:15:44.137Z,4.73
2018-12-09T05:16:52.192Z,4.66
2018-12-09T05:18:00.254Z,4.52
2018-12-09T05:19:08.300Z,4.60
2018-12-09T05:20:16.352Z,4.51
2018-12-09T05:21:24.434Z,4.37
2018-12-09T05:22:32.463Z,4.30
2018-12-09T05:23:40.556Z,4.34
2018-12-09T05:24:48.602Z,4.30
2018-12-09T05:25:56.642Z,4.32
2018-12-09T05:27:04.718Z,4.36
2018-12-09T05:28:12.776Z,4.30
2018-12-09T05:29:20.812Z,4.22
2018-12-09T05:30:28.886Z,4.11
2018-12-09T05:31:36.949Z,4.14
2018-12-09T05:32:44.993Z,4.15
2018-12-09T05:33:53.062Z,4.06
2018-12-09T05:35:01.162Z,4.11
2018-12-09T05:36:09.200Z,4.12
2018-12-09T05:37:17.246Z,4.14
2018-12-09T05:38:25.339Z,4.08
2018-12-09T05:39:33.401Z,4.08
2018-12-09T05:40:41.414Z,4.05
2018-12-09T05:41:49.493Z,4.06
2018-12-09T05:42:57.522Z,4.12
2018-12-09T05:44:05.582Z,4.04
2018-12-09T05:45:13.633Z,4.15
2018-12-09T05:46:21.702Z,4.11
2018-12-09T05:47:29.756Z,4.12
2018-12-09T05:48:37.797Z,4.15
2018-12-09T05:49:45.839Z,4.11
2018-12-09T05:50:53.924Z,4.14
2018-12-09T05:52:01.981Z,4.08
2018-12-09T05:53:10.035Z,4.18
2018-12-09T05:54:18.085Z,4.20
2018-12-09T05:55:26.159Z,4.15
2018-12-09T05:56:34.223Z,4.27
2018-12-09T05:57:42.275Z,4.22
2018-12-09T05:58:50.326Z,4.27
2018-12-09T05:59:58.378Z,4.32
2018-12-09T06:01:06.438Z,4.27
2018-12-09T06:02:14.524Z,4.32
2018-12-09T06:03:22.560Z,4.30
2018-12-09T06:04:30.615Z,4.33
2018-12-09T06:05:38.705Z,4.40
2018-12-09T06:06:46.745Z,4.37
2018-12-09T06:07:54.799Z,4.45
2018-12-09T06:09:02.823Z,4.41
2018-12-09T06:10:10.877Z,4.50
2018-12-09T06:11:18.971Z,4.45
2018-12-09T06:12:27.004Z,4.48
2018-12-09T06:13:35.041Z,4.47
2018-12-09T06:14:43.112Z,4.54
2018-12-09T06:15:51.206Z,4.63
2018-12-09T06:16:59.250Z,4.59
2018-12-09T06:18:07.306Z,4.58
2018-12-09T06:19:15.358Z,4.63
2018-12-09T06:20:23.431Z,4.59
2018-12-09T06:21:31.494Z,4.54
2018-12-09T06:22:39.533Z,4.67
2018-12-09T06:23:47.569Z,4.55
2018-12-09T06:24:55.611Z,4.54
2018-12-09T06:26:03.726Z,4.48
2018-12-09T06:27:11.764Z,4.50
2018-12-09T06:28:19.810Z,4.58
2018-12-09T06:29:27.850Z,4.59
2018-12-09T06:30:35.939Z,4.75
2018-12-09T06:31:43.994Z,4.69
2018-12-09T06:32:52.049Z,4.69
2018-12-09T06:34:00.116Z,4.77
2018-12-09T06:35:08.183Z,4.86
2018-12-09T06:36:16.215Z,4.88
2018-12-09T06:37:24.284Z,4.91
2018-12-09T06:38:32.345Z,4.92
2018-12-09T06:39:40.394Z,4.92
2018-12-09T06:40:48.450Z,5.00
2018-12-09T06:41:56.505Z,5.00
2018-12-09T06:43:04.571Z,5.06
2018-12-09T06:44:12.627Z,5.00
2018-12-09T06:45:20.714Z,5.04
2018-12-09T06:46:28.750Z,5.06
2018-12-09T06:47:36.819Z,5.10
2018-12-09T06:48:44.852Z,5.09
2018-12-09T06:49:52.914Z,5.13
2018-12-09T06:51:00.995Z,5.18
2018-12-09T06:52:09.047Z,5.24
2018-12-09T06:53:17.074Z,5.24
2018-12-09T06:54:25.131Z,5.21
2018-12-09T06:55:33.253Z,5.21
2018-12-09T06:56:41.271Z,5.28
2018-12-09T06:57:49.309Z,5.33
2018-12-09T06:58:57.392Z,5.25
2018-12-09T07:00:05.449Z,5.38
2018-12-09T07:01:13.495Z,5.36
2018-12-09T07:02:21.569Z,5.38
2018-12-09T07:03:30.101Z,5.36
2018-12-09T07:04:37.661Z,5.33
2018-12-09T07:05:45.973Z,5.42
2018-12-09T07:06:53.770Z,5.36
2018-12-09T07:08:02.172Z,5.30
2018-12-09T07:09:09.978Z,5.35
2018-12-09T07:10:17.965Z,5.31
2018-12-09T07:11:26.573Z,5.30
2018-12-09T07:12:34.101Z,5.36
2018-12-09T07:13:42.134Z,5.31
2018-12-09T07:14:50.195Z,5.31
2018-12-09T07:15:58.253Z,5.30
2018-12-09T07:17:06.313Z,5.36
2018-12-09T07:18:14.363Z,5.36
2018-12-09T07:19:22.433Z,5.22
2018-12-09T07:20:30.504Z,5.35
2018-12-09T07:21:38.540Z,5.39
2018-12-09T07:22:46.616Z,5.36
2018-12-09T07:23:54.649Z,5.31
2018-12-09T07:25:02.716Z,5.31
2018-12-09T07:26:10.778Z,5.25
2018-12-09T07:27:18.819Z,5.31
2018-12-09T07:28:26.910Z,5.24
2018-12-09T07:29:35.246Z,5.22
2018-12-09T07:30:43.197Z,5.17
2018-12-09T07:31:51.263Z,5.27
2018-12-09T07:32:59.127Z,5.28
2018-12-09T07:34:07.191Z,5.25
2018-12-09T07:35:15.242Z,5.20
2018-12-09T07:36:23.846Z,5.21
2018-12-09T07:37:31.732Z,5.21
2018-12-09T07:38:39.544Z,5.18
2018-12-09T07:39:47.693Z,5.22
2018-12-09T07:40:55.512Z,5.25
2018-12-09T07:42:03.595Z,5.31
2018-12-09T07:43:11.657Z,5.33
2018-12-09T07:44:19.707Z,5.36
2018-12-09T07:45:27.772Z,5.36
2018-12-09T07:46:35.818Z,5.38
2018-12-09T07:47:43.920Z,5.30
2018-12-09T07:48:51.954Z,5.33
2018-12-09T07:49:59.985Z,5.33
2018-12-09T07:51:08.063Z,5.31
2018-12-09T07:52:16.135Z,5.30
2018-12-09T07:53:24.194Z,5.40
2018-12-09T07:54:32.250Z,5.36
2018-12-09T07:55:40.302Z,5.30
2018-12-09T07:56:48.349Z,5.30
2018-12-09T07:57:56.715Z,5.28
2018-12-09T07:59:04.440Z,5.38
2018-12-09T08:00:12.515Z,5.36
2018-12-09T08:01:20.819Z,5.31
2018-12-09T08:02:28.646Z,5.42
2018-12-09T08:03:36.700Z,5.40
2018-12-09T08:04:44.822Z,5.31
2018-12-09T08:05:52.821Z,5.31
2018-12-09T08:07:00.874Z,5.35
2018-12-09T08:08:08.955Z,5.31
2018-12-09T08:09:17.469Z,5.33
2018-12-09T08:10:25.041Z,5.30
2018-12-09T08:11:33.089Z,5.33
2018-12-09T08:12:41.172Z,5.35
2018-12-09T08:13:49.242Z,5.39
2018-12-09T08:14:57.289Z,5.46
2018-12-09T08:16:05.349Z,5.38
2018-12-09T08:17:13.393Z,5.31
2018-12-09T08:18:21.735Z,5.33
2018-12-09T08:19:29.521Z,5.35
2018-12-09T08:20:37.570Z,5.35
2018-12-09T08:21:45.617Z,5.36
2018-12-09T08:22:53.693Z,5.30
2018-12-09T08:24:01.757Z,5.45
2018-12-09T08:25:09.821Z,5.42
2018-12-09T08:26:17.849Z,5.36
2018-12-09T08:27:25.930Z,5.46
2018-12-09T08:28:34.002Z,5.51
2018-12-09T08:29:42.030Z,5.57
2018-12-09T08:30:50.135Z,5.53
2018-12-09T08:31:58.168Z,5.58
2018-12-09T08:33:06.235Z,5.60
2018-12-09T08:34:14.283Z,5.60
2018-12-09T08:35:22.351Z,5.63
2018-12-09T08:36:30.414Z,5.75
2018-12-09T08:37:38.554Z,5.65
2018-12-09T08:38:46.528Z,5.78
2018-12-09T08:39:54.644Z,5.97
2018-12-09T08:41:02.633Z,5.90
2018-12-09T08:42:11.166Z,5.94
2018-12-09T08:43:18.954Z,5.90
2018-12-09T08:44:27.034Z,5.94
2018-12-09T08:45:34.859Z,5.93
2018-12-09T08:46:43.052Z,5.90
2018-12-09T08:47:51.589Z,5.85
2018-12-09T08:48:59.451Z,5.94
2018-12-09T08:50:07.532Z,5.91
2018-12-09T08:51:15.714Z,5.85
2018-12-09T08:52:23.789Z,5.75
2018-12-09T08:53:31.901Z,5.75
2018-12-09T08:54:39.524Z,5.78
2018-12-09T08:55:47.401Z,5.72
2018-12-09T08:56:55.837Z,5.71
2018-12-09T08:58:03.821Z,5.67
2018-12-09T08:59:12.018Z,5.71
2018-12-09T09:00:19.658Z,5.75
2018-12-09T09:01:27.683Z,5.75
2018-12-09T09:02:36.304Z,5.96
2018-12-09T09:03:43.899Z,6.00
2018-12-09T09:04:52.232Z,6.00
2018-12-09T09:05:59.975Z,5.99
2018-12-09T09:07:08.075Z,6.00
2018-12-09T09:08:16.212Z,6.06
2018-12-09T09:09:24.351Z,6.14
2018-12-09T09:10:32.723Z,6.22
2018-12-09T09:11:40.240Z,6.28
2018-12-09T09:12:48.796Z,6.34
2018-12-09T09:13:56.462Z,6.40
2018-12-09T09:15:04.680Z,6.51
2018-12-09T09:16:12.488Z,6.64
2018-12-09T09:17:20.549Z,6.61
2018-12-09T09:18:28.584Z,6.62
2018-12-09T09:19:36.643Z,6.70
2018-12-09T09:20:44.705Z,6.64
2018-12-09T09:21:52.767Z,6.64
2018-12-09T09:23:00.818Z,6.66
2018-12-09T09:24:08.886Z,6.58
2018-12-09T09:25:16.931Z,6.67
2018-12-09T09:26:25.126Z,6.64
2018-12-09T09:27:33.071Z,6.70
2018-12-09T09:28:42.909Z,6.81
2018-12-09T09:29:49.203Z,6.88
2018-12-09T09:30:57.253Z,6.92
2018-12-09T09:32:05.295Z,6.97
2018-12-09T09:33:13.352Z,6.95
2018-12-09T09:34:21.430Z,6.99
2018-12-09T09:35:29.499Z,7.03
2018-12-09T09:36:37.544Z,7.12
2018-12-09T09:37:45.588Z,7.13
2018-12-09T09:38:53.667Z,7.12
2018-12-09T09:40:01.742Z,7.13
2018-12-09T09:41:09.781Z,7.17
2018-12-09T09:42:17.835Z,7.27
2018-12-09T09:43:25.887Z,7.24
2018-12-09T09:44:33.977Z,7.27
2018-12-09T09:45:42.019Z,7.31
2018-12-09T09:46:50.088Z,7.40
2018-12-09T09:47:58.205Z,7.37
2018-12-09T09:49:06.227Z,7.39
2018-12-09T09:50:14.393Z,7.37
2018-12-09T09:51:22.330Z,7.52
2018-12-09T09:52:30.396Z,7.49
2018-12-09T09:53:38.441Z,7.60
2018-12-09T09:54:46.526Z,7.72
2018-12-09T09:55:54.593Z,7.77
2018-12-09T09:57:02.636Z,7.80
2018-12-09T09:58:10.708Z,7.79
2018-12-09T09:59:18.750Z,7.89
2018-12-09T10:00:26.818Z,7.97
2018-12-09T10:01:34.870Z,8.01
2018-12-09T10:02:42.945Z,8.08
2018-12-09T10:03:51.009Z,8.08
2018-12-09T10:04:59.073Z,8.15
2018-12-09T10:06:07.131Z,8.19
2018-12-09T10:07:15.200Z,8.11
2018-12-09T10:08:23.245Z,8.29
2018-12-09T10:09:31.305Z,8.33
2018-12-09T10:10:39.367Z,8.33
2018-12-09T10:11:47.440Z,8.37
2018-12-09T10:12:55.711Z,8.47
2018-12-09T10:14:03.543Z,8.56
2018-12-09T10:15:11.616Z,8.56
2018-12-09T10:16:19.693Z,8.58
2018-12-09T10:17:27.757Z,8.47
2018-12-09T10:18:35.798Z,8.56
2018-12-09T10:19:43.851Z,8.53
2018-12-09T10:20:51.913Z,8.58
2018-12-09T10:21:59.978Z,8.56
2018-12-09T10:23:08.043Z,8.63
2018-12-09T10:24:16.100Z,8.66
2018-12-09T10:25:24.173Z,8.73
2018-12-09T10:26:36.340Z,8.83
2018-12-09T10:27:40.296Z,8.84
2018-12-09T10:28:48.380Z,8.68
2018-12-09T10:29:56.427Z,8.83
2018-12-09T10:31:04.509Z,8.81
2018-12-09T10:32:12.547Z,8.80
2018-12-09T10:33:20.605Z,8.86
2018-12-09T10:34:28.673Z,8.84
2018-12-09T10:35:36.729Z,9.01
2018-12-09T10:36:44.802Z,8.95
2018-12-09T10:37:52.852Z,9.02
2018-12-09T10:39:00.909Z,9.01
2018-12-09T10:40:08.996Z,8.98
2018-12-09T10:41:17.023Z,8.92
2018-12-09T10:42:25.109Z,9.02
2018-12-09T10:43:33.173Z,9.17
2018-12-09T10:44:41.259Z,9.23
2018-12-09T10:45:49.308Z,9.35
2018-12-09T10:46:57.372Z,9.36
2018-12-09T10:48:05.423Z,9.46
2018-12-09T10:49:13.603Z,9.61
2018-12-09T10:50:21.557Z,9.57
2018-12-09T10:51:29.655Z,9.61
2018-12-09T10:52:37.671Z,9.57
2018-12-09T10:53:45.709Z,9.65
2018-12-09T10:54:53.803Z,9.75
2018-12-09T10:56:01.852Z,9.79
2018-12-09T10:57:09.916Z,9.86
2018-12-09T10:58:17.991Z,9.81
2018-12-09T10:59:26.030Z,9.56
2018-12-09T11:00:34.114Z,9.51
2018-12-09T11:01:42.183Z,9.31
2018-12-09T11:02:50.245Z,9.35
2018-12-09T11:03:58.311Z,9.32
2018-12-09T11:05:06.368Z,9.24
2018-12-09T11:06:14.429Z,9.21
2018-12-09T11:07:22.508Z,9.18
2018-12-09T11:08:30.642Z,9.01
2018-12-09T11:09:38.615Z,8.99
2018-12-09T11:10:46.679Z,8.99
2018-12-09T11:11:54.739Z,8.92
2018-12-09T11:13:02.823Z,8.81
2018-12-09T11:14:10.871Z,8.56
2018-12-09T11:15:18.931Z,8.50
2018-12-09T11:16:26.993Z,8.29
2018-12-09T11:17:35.031Z,8.11
2018-12-09T11:18:43.115Z,8.07
2018-12-09T11:19:51.214Z,7.97
2018-12-09T11:20:59.239Z,7.97
2018-12-09T11:22:07.306Z,7.86
2018-12-09T11:23:15.343Z,7.77
2018-12-09T11:24:23.426Z,7.75
2018-12-09T11:25:31.500Z,7.60
2018-12-09T11:26:39.573Z,7.52
2018-12-09T11:27:47.631Z,7.46
2018-12-09T11:28:55.737Z,7.40
2018-12-09T11:30:03.745Z,7.30
2018-12-09T11:31:11.797Z,7.16
2018-12-09T11:32:19.855Z,7.16
2018-12-09T11:33:27.938Z,7.13
2018-12-09T11:34:36.010Z,7.09
2018-12-09T11:35:44.050Z,7.07
2018-12-09T11:36:52.104Z,6.91
2018-12-09T11:38:00.187Z,6.97
2018-12-09T11:39:09.297Z,6.94
2018-12-09T11:40:16.303Z,6.87
2018-12-09T11:41:24.362Z,6.87
2018-12-09T11:42:32.430Z,6.87
2018-12-09T11:43:40.473Z,6.87
2018-12-09T11:44:48.540Z,6.71
2018-12-09T11:45:56.615Z,6.62
2018-12-09T11:47:04.662Z,6.59
2018-12-09T11:48:12.721Z,6.58
2018-12-09T11:49:20.824Z,6.46
2018-12-09T11:50:28.843Z,6.48
2018-12-09T11:51:36.922Z,6.40
2018-12-09T11:52:45.001Z,6.31
2018-12-09T11:53:53.033Z,6.36
2018-12-09T11:55:01.099Z,6.33
2018-12-09T11:56:09.139Z,6.28
2018-12-09T11:57:17.198Z,6.27
2018-12-09T11:58:25.275Z,6.15
2018-12-09T11:59:33.342Z,6.22
2018-12-09T12:00:41.410Z,6.18
2018-12-09T12:01:49.443Z,6.11
2018-12-09T12:02:57.520Z,6.15
2018-12-09T12:04:05.568Z,6.09
2018-12-09T12:05:13.615Z,6.08
2018-12-09T12:06:21.678Z,6.09
2018-12-09T12:07:29.772Z,6.04
2018-12-09T12:08:37.807Z,6.01
2018-12-09T12:09:45.854Z,6.08
2018-12-09T12:10:53.920Z,6.14
2018-12-09T12:12:01.974Z,6.08
2018-12-09T12:13:10.044Z,6.15
2018-12-09T12:14:18.110Z,6.00
2018-12-09T12:15:26.153Z,6.09
2018-12-09T12:16:34.207Z,6.04
2018-12-09T12:17:42.267Z,6.04
2018-12-09T12:18:50.327Z,6.04
2018-12-09T12:19:58.395Z,6.03
2018-12-09T12:21:06.451Z,5.97
2018-12-09T12:22:14.522Z,6.01
2018-12-09T12:23:22.581Z,6.06
2018-12-09T12:24:30.635Z,6.12
2018-12-09T12:25:38.678Z,6.04
2018-12-09T12:26:46.756Z,6.11
2018-12-09T12:27:54.808Z,6.17
2018-12-09T12:29:02.875Z,6.15
2018-12-09T12:30:10.922Z,6.17
2018-12-09T12:31:18.979Z,6.17
2018-12-09T12:32:27.120Z,6.25
2018-12-09T12:33:35.076Z,6.30
2018-12-09T12:34:43.174Z,6.22
2018-12-09T12:35:51.230Z,6.19
2018-12-09T12:36:59.294Z,6.21
2018-12-09T12:38:07.346Z,6.15
2018-12-09T12:39:15.429Z,6.34
2018-12-09T12:40:23.454Z,6.27
2018-12-09T12:41:31.931Z,6.25
2018-12-09T12:42:39.582Z,6.31
2018-12-09T12:43:47.668Z,6.36
2018-12-09T12:44:55.687Z,6.36
2018-12-09T12:46:03.759Z,6.41
2018-12-09T12:47:11.830Z,6.49
2018-12-09T12:48:19.906Z,6.48
2018-12-09T12:49:27.970Z,6.64
2018-12-09T12:50:36.011Z,6.66
2018-12-09T12:51:44.058Z,6.67
2018-12-09T12:52:52.119Z,6.64
2018-12-09T12:54:00.179Z,6.70
2018-12-09T12:55:08.245Z,6.66
2018-12-09T12:56:16.322Z,6.74
2018-12-09T12:57:24.376Z,6.74
2018-12-09T12:58:32.434Z,6.80
2018-12-09T12:59:40.470Z,6.80
2018-12-09T13:00:48.536Z,6.89
2018-12-09T13:01:56.590Z,7.03
2018-12-09T13:03:04.688Z,7.03
2018-12-09T13:04:12.780Z,6.99
2018-12-09T13:05:20.799Z,7.13
2018-12-09T13:06:28.862Z,7.13
2018-12-09T13:07:36.920Z,7.03
2018-12-09T13:08:44.952Z,6.99
2018-12-09T13:09:53.013Z,6.91
2018-12-09T13:11:01.082Z,6.92
2018-12-09T13:12:09.149Z,7.02
2018-12-09T13:13:17.214Z,6.91
2018-12-09T13:14:25.255Z,6.92
2018-12-09T13:15:33.327Z,6.87
2018-12-09T13:16:41.418Z,6.81
2018-12-09T13:17:49.442Z,6.80
2018-12-09T13:18:57.533Z,6.76
2018-12-09T13:20:05.542Z,6.87
2018-12-09T13:21:13.609Z,6.76
2018-12-09T13:22:21.687Z,6.81
2018-12-09T13:23:29.740Z,6.80
2018-12-09T13:24:37.792Z,6.73
2018-12-09T13:25:45.850Z,6.80
2018-12-09T13:26:53.927Z,6.81
2018-12-09T13:28:02.079Z,6.79
2018-12-09T13:29:10.043Z,6.85
2018-12-09T13:30:18.112Z,6.79
2018-12-09T13:31:26.152Z,6.79
2018-12-09T13:32:34.233Z,6.74
2018-12-09T13:33:42.306Z,6.71
2018-12-09T13:34:50.350Z,6.64
2018-12-09T13:35:58.417Z,6.61
2018-12-09T13:37:06.465Z,6.66
2018-12-09T13:38:14.547Z,6.64
2018-12-09T13:39:22.576Z,6.64
2018-12-09T13:40:30.664Z,6.58
2018-12-09T13:41:38.849Z,6.64
2018-12-09T13:42:46.744Z,6.56
2018-12-09T13:43:54.819Z,6.67
2018-12-09T13:45:02.895Z,6.54
2018-12-09T13:46:10.963Z,6.64
2018-12-09T13:47:19.023Z,6.59
2018-12-09T13:48:27.068Z,6.55
2018-12-09T13:49:35.138Z,6.48
2018-12-09T13:50:43.217Z,6.46
2018-12-09T13:51:52.926Z,6.49
2018-12-09T13:52:59.321Z,6.34
2018-12-09T13:54:07.378Z,6.34
2018-12-09T13:55:15.430Z,6.36
2018-12-09T13:56:23.503Z,6.37
2018-12-09T13:57:31.551Z,6.36
2018-12-09T13:58:39.620Z,6.31
2018-12-09T13:59:47.666Z,6.33
2018-12-09T14:00:55.715Z,6.22
2018-12-09T14:02:03.792Z,6.27
2018-12-09T14:03:11.837Z,6.11
2018-12-09T14:04:19.903Z,6.18
2018-12-09T14:05:27.947Z,6.17
2018-12-09T14:06:36.014Z,6.14
2018-12-09T14:07:44.089Z,6.17
2018-12-09T14:08:52.163Z,6.15
2018-12-09T14:10:00.210Z,6.14
2018-12-09T14:11:08.273Z,6.15
2018-12-09T14:12:16.336Z,6.15
2018-12-09T14:13:24.405Z,6.15
2018-12-09T14:14:32.460Z,6.11
2018-12-09T14:15:40.502Z,6.04
2018-12-09T14:16:48.562Z,6.12
2018-12-09T14:17:56.643Z,6.15
2018-12-09T14:19:04.679Z,6.08
2018-12-09T14:20:12.722Z,6.09
2018-12-09T14:21:20.810Z,6.06
2018-12-09T14:22:28.880Z,6.17
2018-12-09T14:23:36.906Z,6.08
2018-12-09T14:24:44.977Z,6.14
2018-12-09T14:25:53.046Z,6.09
2018-12-09T14:27:01.103Z,6.08
2018-12-09T14:28:09.162Z,6.12
2018-12-09T14:29:17.220Z,6.09
2018-12-09T14:30:25.282Z,6.04
2018-12-09T14:31:34.130Z,6.03
2018-12-09T14:32:41.408Z,6.04
2018-12-09T14:33:49.503Z,5.96
2018-12-09T14:34:57.525Z,5.96
2018-12-09T14:36:05.566Z,6.00
2018-12-09T14:37:13.633Z,6.00
2018-12-09T14:38:21.692Z,5.89
2018-12-09T14:39:29.739Z,5.91
2018-12-09T14:40:37.812Z,5.91
2018-12-09T14:41:45.873Z,5.96
2018-12-09T14:42:53.943Z,5.93
2018-12-09T14:44:01.980Z,5.93
2018-12-09T14:45:10.062Z,5.89
2018-12-09T14:46:18.116Z,5.81
2018-12-09T14:47:26.188Z,5.86
2018-12-09T14:48:34.243Z,5.82
2018-12-09T14:49:42.305Z,5.89
2018-12-09T14:50:50.340Z,5.71
2018-12-09T14:51:58.401Z,5.82
2018-12-09T14:53:06.485Z,5.78
2018-12-09T14:54:14.506Z,5.83
2018-12-09T14:55:22.588Z,5.79
2018-12-09T14:56:30.649Z,5.75
2018-12-09T14:57:38.707Z,5.60
2018-12-09T14:58:46.787Z,5.61
2018-12-09T14:59:54.833Z,5.56
2018-12-09T15:01:02.884Z,5.51
2018-12-09T15:02:10.936Z,5.51
2018-12-09T15:03:18.986Z,5.53
2018-12-09T15:04:27.058Z,5.53
2018-12-09T15:05:35.092Z,5.43